sensor_id;sensor_type;location;lat;lon;timestamp;pressure;altitude;pressure_sealevel;temperature;humidity
69796;BME280;57073;45.650;9.612;2023-05-24T00:03:44;98916.13;;;19.19;43.64
69796;BME280;57073;45.650;9.612;2023-05-24T00:08:46;98906.69;;;19.11;43.98
69796;BME280;57073;45.650;9.612;2023-05-24T00:13:46;98910.56;;;19.10;44.05
69796;BME280;57073;45.650;9.612;2023-05-24T00:18:47;98908.03;;;19.14;44.46
69796;BME280;57073;45.650;9.612;2023-05-24T00:23:47;98913.00;;;19.12;43.74
69796;BME280;57073;45.650;9.612;2023-05-24T00:28:50;98905.19;;;19.05;44.47
69796;BME280;57073;45.650;9.612;2023-05-24T00:33:51;98902.06;;;19.12;44.05
69796;BME280;57073;45.650;9.612;2023-05-24T00:38:51;98896.38;;;18.94;44.69
69796;BME280;57073;45.650;9.612;2023-05-24T00:43:52;98896.38;;;18.94;44.64
69796;BME280;57073;45.650;9.612;2023-05-24T00:48:53;98892.91;;;18.89;44.93
69796;BME280;57073;45.650;9.612;2023-05-24T00:53:53;98891.09;;;18.98;44.79
69796;BME280;57073;45.650;9.612;2023-05-24T00:58:54;98903.22;;;18.92;44.77
69796;BME280;57073;45.650;9.612;2023-05-24T01:03:56;98907.19;;;18.86;45.13
69796;BME280;57073;45.650;9.612;2023-05-24T01:09:16;98903.31;;;18.73;46.02
69796;BME280;57073;45.650;9.612;2023-05-24T01:14:35;98893.81;;;18.84;45.21
69796;BME280;57073;45.650;9.612;2023-05-24T01:19:53;98902.38;;;18.63;45.99
69796;BME280;57073;45.650;9.612;2023-05-24T01:30:09;98895.00;;;18.64;44.88
69796;BME280;57073;45.650;9.612;2023-05-24T01:35:09;98893.69;;;18.61;45.24
69796;BME280;57073;45.650;9.612;2023-05-24T01:40:11;98891.53;;;18.58;44.67
69796;BME280;57073;45.650;9.612;2023-05-24T01:50:31;98901.88;;;18.42;46.29
69796;BME280;57073;45.650;9.612;2023-05-24T01:55:33;98902.34;;;18.50;45.76
69796;BME280;57073;45.650;9.612;2023-05-24T02:00:34;98897.91;;;18.54;45.21
69796;BME280;57073;45.650;9.612;2023-05-24T02:05:34;98901.38;;;18.40;45.13
69796;BME280;57073;45.650;9.612;2023-05-24T02:10:35;98902.28;;;18.36;45.32
69796;BME280;57073;45.650;9.612;2023-05-24T02:15:38;98894.19;;;18.44;45.63
69796;BME280;57073;45.650;9.612;2023-05-24T02:20:40;98902.88;;;18.33;45.99
69796;BME280;57073;45.650;9.612;2023-05-24T02:25:41;98894.53;;;18.43;45.99
69796;BME280;57073;45.650;9.612;2023-05-24T02:30:41;98904.31;;;18.44;45.66
69796;BME280;57073;45.650;9.612;2023-05-24T02:35:43;98908.09;;;18.29;46.58
69796;BME280;57073;45.650;9.612;2023-05-24T02:40:43;98899.13;;;18.29;46.63
69796;BME280;57073;45.650;9.612;2023-05-24T02:45:44;98905.59;;;18.33;46.79
69796;BME280;57073;45.650;9.612;2023-05-24T02:50:45;98906.00;;;18.07;48.31
69796;BME280;57073;45.650;9.612;2023-05-24T02:55:45;98894.66;;;18.00;48.74
69796;BME280;57073;45.650;9.612;2023-05-24T03:00:46;98901.56;;;18.11;47.92
69796;BME280;57073;45.650;9.612;2023-05-24T03:05:46;98904.59;;;17.91;49.48
69796;BME280;57073;45.650;9.612;2023-05-24T03:10:47;98902.53;;;17.82;49.87
69796;BME280;57073;45.650;9.612;2023-05-24T03:15:47;98899.06;;;17.77;50.05
69796;BME280;57073;45.650;9.612;2023-05-24T03:20:48;98888.38;;;17.80;49.27
69796;BME280;57073;45.650;9.612;2023-05-24T03:25:48;98891.63;;;17.82;48.81
69796;BME280;57073;45.650;9.612;2023-05-24T03:30:48;98892.53;;;17.78;49.08
69796;BME280;57073;45.650;9.612;2023-05-24T03:35:49;98899.28;;;17.61;50.42
69796;BME280;57073;45.650;9.612;2023-05-24T03:40:49;98896.56;;;17.80;49.92
69796;BME280;57073;45.650;9.612;2023-05-24T03:45:50;98889.22;;;17.57;50.33
69796;BME280;57073;45.650;9.612;2023-05-24T03:50:50;98903.34;;;17.64;50.77
69796;BME280;57073;45.650;9.612;2023-05-24T03:55:50;98906.00;;;17.69;50.10
69796;BME280;57073;45.650;9.612;2023-05-24T04:00:51;98909.69;;;17.78;48.82
69796;BME280;57073;45.650;9.612;2023-05-24T04:05:52;98911.16;;;17.90;48.49
69796;BME280;57073;45.650;9.612;2023-05-24T04:10:53;98912.63;;;18.20;48.05
69796;BME280;57073;45.650;9.612;2023-05-24T04:15:53;98919.53;;;18.31;47.48
69796;BME280;57073;45.650;9.612;2023-05-24T04:20:53;98920.66;;;18.49;46.63
69796;BME280;57073;45.650;9.612;2023-05-24T04:25:54;98927.50;;;18.93;46.04
69796;BME280;57073;45.650;9.612;2023-05-24T04:30:54;98927.19;;;19.42;45.28
69796;BME280;57073;45.650;9.612;2023-05-24T04:35:56;98924.22;;;19.66;44.71
69796;BME280;57073;45.650;9.612;2023-05-24T04:41:00;98925.78;;;20.08;44.26
69796;BME280;57073;45.650;9.612;2023-05-24T04:46:01;98918.81;;;20.47;43.22
69796;BME280;57073;45.650;9.612;2023-05-24T04:51:02;98932.63;;;20.87;42.49
69796;BME280;57073;45.650;9.612;2023-05-24T04:56:02;98944.72;;;20.86;41.79
69796;BME280;57073;45.650;9.612;2023-05-24T05:01:02;98943.06;;;21.08;43.14
69796;BME280;57073;45.650;9.612;2023-05-24T05:06:03;98940.47;;;21.52;41.46
69796;BME280;57073;45.650;9.612;2023-05-24T05:11:04;98940.28;;;21.39;41.74
69796;BME280;57073;45.650;9.612;2023-05-24T05:16:04;98934.72;;;21.62;41.99
69796;BME280;57073;45.650;9.612;2023-05-24T05:21:05;98934.59;;;21.76;41.34
69796;BME280;57073;45.650;9.612;2023-05-24T05:26:05;98944.94;;;22.05;40.60
69796;BME280;57073;45.650;9.612;2023-05-24T05:31:06;98937.53;;;22.23;41.02
69796;BME280;57073;45.650;9.612;2023-05-24T05:36:06;98943.53;;;22.25;39.84
69796;BME280;57073;45.650;9.612;2023-05-24T05:41:07;98938.50;;;22.53;40.21
69796;BME280;57073;45.650;9.612;2023-05-24T05:46:07;98949.66;;;22.57;40.14
69796;BME280;57073;45.650;9.612;2023-05-24T05:51:08;98946.59;;;22.67;40.67
69796;BME280;57073;45.650;9.612;2023-05-24T05:56:08;98948.34;;;23.28;39.37
69796;BME280;57073;45.650;9.612;2023-05-24T06:01:08;98952.75;;;23.58;38.83
69796;BME280;57073;45.650;9.612;2023-05-24T06:06:10;98937.47;;;23.70;38.51
69796;BME280;57073;45.650;9.612;2023-05-24T06:11:10;98948.19;;;24.13;38.45
69796;BME280;57073;45.650;9.612;2023-05-24T06:16:11;98949.09;;;24.26;36.64
69796;BME280;57073;45.650;9.612;2023-05-24T06:21:11;98949.75;;;24.44;35.81
69796;BME280;57073;45.650;9.612;2023-05-24T06:26:11;98947.78;;;25.11;34.69
69796;BME280;57073;45.650;9.612;2023-05-24T06:31:12;98943.31;;;25.32;34.21
69796;BME280;57073;45.650;9.612;2023-05-24T06:36:12;98943.19;;;25.28;34.00
69796;BME280;57073;45.650;9.612;2023-05-24T06:41:12;98952.53;;;25.73;32.32
69796;BME280;57073;45.650;9.612;2023-05-24T06:46:13;98959.41;;;25.79;32.62
69796;BME280;57073;45.650;9.612;2023-05-24T06:51:13;98952.81;;;26.20;33.00
69796;BME280;57073;45.650;9.612;2023-05-24T06:56:13;98971.03;;;26.50;32.63
69796;BME280;57073;45.650;9.612;2023-05-24T07:01:14;98972.38;;;26.56;32.92
69796;BME280;57073;45.650;9.612;2023-05-24T07:06:15;98973.31;;;26.88;32.67
69796;BME280;57073;45.650;9.612;2023-05-24T07:11:17;98973.69;;;27.03;32.20
69796;BME280;57073;45.650;9.612;2023-05-24T07:16:17;98972.06;;;27.17;31.64
69796;BME280;57073;45.650;9.612;2023-05-24T07:21:18;98981.41;;;27.41;31.51
69796;BME280;57073;45.650;9.612;2023-05-24T07:26:18;98967.81;;;27.36;31.45
69796;BME280;57073;45.650;9.612;2023-05-24T07:31:18;98971.47;;;27.56;31.88
69796;BME280;57073;45.650;9.612;2023-05-24T07:36:19;98970.56;;;27.68;31.39
69796;BME280;57073;45.650;9.612;2023-05-24T07:41:24;98963.47;;;27.35;31.81
69796;BME280;57073;45.650;9.612;2023-05-24T07:46:25;98956.53;;;27.13;32.06
69796;BME280;57073;45.650;9.612;2023-05-24T07:51:25;98959.50;;;27.36;32.57
69796;BME280;57073;45.650;9.612;2023-05-24T07:56:26;98956.41;;;27.73;31.41
69796;BME280;57073;45.650;9.612;2023-05-24T08:01:26;98959.88;;;28.02;32.15
69796;BME280;57073;45.650;9.612;2023-05-24T08:06:27;98955.16;;;27.86;31.03
69796;BME280;57073;45.650;9.612;2023-05-24T08:11:28;98961.03;;;28.01;31.72
69796;BME280;57073;45.650;9.612;2023-05-24T08:16:30;98966.31;;;28.25;31.08
69796;BME280;57073;45.650;9.612;2023-05-24T08:21:30;98962.75;;;28.25;31.43
69796;BME280;57073;45.650;9.612;2023-05-24T08:26:31;98955.00;;;28.14;31.30
69796;BME280;57073;45.650;9.612;2023-05-24T08:31:31;98953.09;;;27.99;31.31
69796;BME280;57073;45.650;9.612;2023-05-24T08:36:34;98951.81;;;27.96;31.68
69796;BME280;57073;45.650;9.612;2023-05-24T08:41:35;98960.53;;;27.95;30.83
69796;BME280;57073;45.650;9.612;2023-05-24T08:46:38;98958.28;;;27.85;30.69
69796;BME280;57073;45.650;9.612;2023-05-24T08:51:39;98963.94;;;27.72;31.26
69796;BME280;57073;45.650;9.612;2023-05-24T08:56:39;98965.31;;;27.63;31.14
69796;BME280;57073;45.650;9.612;2023-05-24T09:01:40;98962.81;;;27.57;31.65
69796;BME280;57073;45.650;9.612;2023-05-24T09:06:42;98960.53;;;27.79;31.59
69796;BME280;57073;45.650;9.612;2023-05-24T09:11:44;98954.06;;;27.39;31.52
69796;BME280;57073;45.650;9.612;2023-05-24T09:16:46;98954.06;;;27.55;32.17
69796;BME280;57073;45.650;9.612;2023-05-24T09:21:48;98952.00;;;27.20;31.65
69796;BME280;57073;45.650;9.612;2023-05-24T09:26:48;98944.38;;;27.01;32.55
69796;BME280;57073;45.650;9.612;2023-05-24T09:31:54;98945.91;;;27.15;32.71
69796;BME280;57073;45.650;9.612;2023-05-24T09:36:55;98947.34;;;26.65;34.19
69796;BME280;57073;45.650;9.612;2023-05-24T09:41:55;98940.03;;;26.28;33.06
69796;BME280;57073;45.650;9.612;2023-05-24T09:47:02;98936.72;;;26.67;33.33
69796;BME280;57073;45.650;9.612;2023-05-24T09:52:04;98940.97;;;26.48;33.69
69796;BME280;57073;45.650;9.612;2023-05-24T09:57:04;98943.59;;;26.73;34.45
69796;BME280;57073;45.650;9.612;2023-05-24T10:02:07;98935.28;;;26.85;34.46
69796;BME280;57073;45.650;9.612;2023-05-24T10:07:09;98940.88;;;26.44;34.67
69796;BME280;57073;45.650;9.612;2023-05-24T10:12:11;98941.50;;;26.25;35.05
69796;BME280;57073;45.650;9.612;2023-05-24T10:17:11;98938.41;;;26.27;35.16
69796;BME280;57073;45.650;9.612;2023-05-24T10:22:13;98947.91;;;26.42;35.66
69796;BME280;57073;45.650;9.612;2023-05-24T10:27:20;98939.06;;;26.36;35.75
69796;BME280;57073;45.650;9.612;2023-05-24T10:32:22;98945.88;;;26.55;36.08
69796;BME280;57073;45.650;9.612;2023-05-24T10:37:24;98931.25;;;26.83;36.42
69796;BME280;57073;45.650;9.612;2023-05-24T10:42:26;98925.47;;;26.59;35.64
69796;BME280;57073;45.650;9.612;2023-05-24T10:47:26;98922.97;;;26.83;35.82
69796;BME280;57073;45.650;9.612;2023-05-24T10:52:33;98921.34;;;26.53;36.37
69796;BME280;57073;45.650;9.612;2023-05-24T10:57:35;98913.16;;;26.85;36.08
69796;BME280;57073;45.650;9.612;2023-05-24T11:02:36;98902.00;;;26.53;37.24
69796;BME280;57073;45.650;9.612;2023-05-24T11:07:40;98899.41;;;26.60;36.73
69796;BME280;57073;45.650;9.612;2023-05-24T11:12:44;98894.06;;;26.23;36.84
69796;BME280;57073;45.650;9.612;2023-05-24T11:23:14;98880.84;;;26.17;37.29
69796;BME280;57073;45.650;9.612;2023-05-24T11:28:16;98879.38;;;26.07;36.05
69796;BME280;57073;45.650;9.612;2023-05-24T11:33:21;98874.50;;;26.29;36.00
69796;BME280;57073;45.650;9.612;2023-05-24T11:38:22;98860.44;;;26.66;36.61
69796;BME280;57073;45.650;9.612;2023-05-24T11:43:22;98860.16;;;26.55;37.18
69796;BME280;57073;45.650;9.612;2023-05-24T11:48:23;98854.78;;;26.74;36.86
69796;BME280;57073;45.650;9.612;2023-05-24T11:53:24;98847.03;;;26.36;36.96
69796;BME280;57073;45.650;9.612;2023-05-24T11:58:48;98844.97;;;26.33;36.71
69796;BME280;57073;45.650;9.612;2023-05-24T12:03:50;98837.47;;;26.17;37.24
69796;BME280;57073;45.650;9.612;2023-05-24T12:08:51;98840.72;;;26.51;37.28
69796;BME280;57073;45.650;9.612;2023-05-24T12:13:51;98836.28;;;26.47;37.25
69796;BME280;57073;45.650;9.612;2023-05-24T12:18:51;98827.53;;;26.60;35.85
69796;BME280;57073;45.650;9.612;2023-05-24T12:23:52;98834.59;;;26.74;36.48
69796;BME280;57073;45.650;9.612;2023-05-24T12:28:54;98826.47;;;26.49;36.38
69796;BME280;57073;45.650;9.612;2023-05-24T12:33:54;98825.63;;;26.33;36.80
69796;BME280;57073;45.650;9.612;2023-05-24T12:38:57;98808.41;;;26.23;37.56
69796;BME280;57073;45.650;9.612;2023-05-24T12:43:58;98805.88;;;26.62;37.69
69796;BME280;57073;45.650;9.612;2023-05-24T12:48:58;98796.59;;;26.71;38.06
69796;BME280;57073;45.650;9.612;2023-05-24T12:54:03;98784.38;;;26.40;38.17
69796;BME280;57073;45.650;9.612;2023-05-24T12:59:04;98772.88;;;26.38;38.43
69796;BME280;57073;45.650;9.612;2023-05-24T13:04:04;98766.00;;;26.48;38.16
69796;BME280;57073;45.650;9.612;2023-05-24T13:09:05;98756.28;;;26.10;38.10
69796;BME280;57073;45.650;9.612;2023-05-24T13:14:05;98734.78;;;25.87;38.43
69796;BME280;57073;45.650;9.612;2023-05-24T13:19:06;98733.00;;;26.23;37.63
69796;BME280;57073;45.650;9.612;2023-05-24T13:24:07;98728.09;;;26.48;38.60
69796;BME280;57073;45.650;9.612;2023-05-24T13:29:08;98723.38;;;26.49;36.71
69796;BME280;57073;45.650;9.612;2023-05-24T13:34:08;98729.88;;;26.72;36.98
69796;BME280;57073;45.650;9.612;2023-05-24T13:39:11;98718.63;;;26.49;35.20
69796;BME280;57073;45.650;9.612;2023-05-24T13:44:13;98717.41;;;26.47;35.78
69796;BME280;57073;45.650;9.612;2023-05-24T13:49:13;98717.94;;;26.52;35.53
69796;BME280;57073;45.650;9.612;2023-05-24T13:54:14;98715.16;;;26.36;35.06
69796;BME280;57073;45.650;9.612;2023-05-24T13:59:16;98710.25;;;26.61;35.99
69796;BME280;57073;45.650;9.612;2023-05-24T14:04:16;98703.00;;;26.73;36.85
69796;BME280;57073;45.650;9.612;2023-05-24T14:09:17;98699.09;;;26.90;37.35
69796;BME280;57073;45.650;9.612;2023-05-24T14:14:17;98694.38;;;26.58;37.73
69796;BME280;57073;45.650;9.612;2023-05-24T14:19:17;98696.16;;;26.03;37.87
69796;BME280;57073;45.650;9.612;2023-05-24T14:24:18;98699.50;;;25.80;39.14
69796;BME280;57073;45.650;9.612;2023-05-24T14:29:18;98698.31;;;25.65;39.39
69796;BME280;57073;45.650;9.612;2023-05-24T14:34:19;98714.97;;;24.63;41.28
69796;BME280;57073;45.650;9.612;2023-05-24T14:39:19;98736.91;;;23.47;33.06
69796;BME280;57073;45.650;9.612;2023-05-24T14:44:20;98747.84;;;23.56;35.06
69796;BME280;57073;45.650;9.612;2023-05-24T14:49:21;98759.72;;;22.02;41.89
69796;BME280;57073;45.650;9.612;2023-05-24T14:54:22;98744.72;;;21.21;46.77
69796;BME280;57073;45.650;9.612;2023-05-24T14:59:22;98713.97;;;20.67;48.26
69796;BME280;57073;45.650;9.612;2023-05-24T15:04:22;98708.59;;;21.02;48.78
69796;BME280;57073;45.650;9.612;2023-05-24T15:09:23;98775.06;;;20.76;47.60
69796;BME280;57073;45.650;9.612;2023-05-24T15:14:23;98849.22;;;20.03;51.18
69796;BME280;57073;45.650;9.612;2023-05-24T15:19:23;98853.44;;;19.87;55.01
69796;BME280;57073;45.650;9.612;2023-05-24T15:24:24;98841.47;;;18.49;54.01
69796;BME280;57073;45.650;9.612;2023-05-24T15:29:25;98829.28;;;18.88;53.04
69796;BME280;57073;45.650;9.612;2023-05-24T15:34:26;98818.66;;;18.73;56.33
69796;BME280;57073;45.650;9.612;2023-05-24T15:39:26;98856.09;;;19.14;58.06
69796;BME280;57073;45.650;9.612;2023-05-24T15:44:27;98913.59;;;19.09;56.34
69796;BME280;57073;45.650;9.612;2023-05-24T15:49:27;98907.19;;;18.34;54.83
69796;BME280;57073;45.650;9.612;2023-05-24T15:54:27;98894.50;;;17.91;58.06
69796;BME280;57073;45.650;9.612;2023-05-24T15:59:28;98908.56;;;17.36;59.61
69796;BME280;57073;45.650;9.612;2023-05-24T16:04:28;98947.78;;;18.02;58.59
69796;BME280;57073;45.650;9.612;2023-05-24T16:09:29;98941.53;;;18.02;59.41
69796;BME280;57073;45.650;9.612;2023-05-24T16:14:29;98932.69;;;17.72;58.53
69796;BME280;57073;45.650;9.612;2023-05-24T16:19:30;98886.53;;;17.08;60.89
69796;BME280;57073;45.650;9.612;2023-05-24T16:24:30;98874.78;;;16.89;60.46
69796;BME280;57073;45.650;9.612;2023-05-24T16:29:30;98835.91;;;16.20;63.98
69796;BME280;57073;45.650;9.612;2023-05-24T16:34:31;98840.56;;;16.48;63.27
69796;BME280;57073;45.650;9.612;2023-05-24T16:39:31;98864.28;;;17.01;61.88
69796;BME280;57073;45.650;9.612;2023-05-24T16:44:35;98896.44;;;16.70;61.87
69796;BME280;57073;45.650;9.612;2023-05-24T16:49:44;98928.38;;;16.25;64.10
69796;BME280;57073;45.650;9.612;2023-05-24T16:54:44;98931.63;;;16.27;63.14
69796;BME280;57073;45.650;9.612;2023-05-24T16:59:45;98945.75;;;16.63;63.25
69796;BME280;57073;45.650;9.612;2023-05-24T17:04:47;98953.75;;;16.89;63.85
69796;BME280;57073;45.650;9.612;2023-05-24T17:09:48;98943.03;;;16.63;64.20
69796;BME280;57073;45.650;9.612;2023-05-24T17:14:49;98935.97;;;16.62;65.72
69796;BME280;57073;45.650;9.612;2023-05-24T17:19:49;98927.94;;;16.47;65.07
69796;BME280;57073;45.650;9.612;2023-05-24T17:24:50;98928.91;;;15.87;66.55
69796;BME280;57073;45.650;9.612;2023-05-24T17:29:50;98921.81;;;15.91;67.47
69796;BME280;57073;45.650;9.612;2023-05-24T17:34:50;98927.31;;;15.81;67.31
69796;BME280;57073;45.650;9.612;2023-05-24T17:39:51;98933.34;;;16.52;65.76
69796;BME280;57073;45.650;9.612;2023-05-24T17:44:51;98951.31;;;16.53;66.01
69796;BME280;57073;45.650;9.612;2023-05-24T17:49:52;98946.59;;;16.64;65.90
69796;BME280;57073;45.650;9.612;2023-05-24T17:54:52;98946.84;;;16.33;67.52
69796;BME280;57073;45.650;9.612;2023-05-24T17:59:52;98970.69;;;16.41;66.71
69796;BME280;57073;45.650;9.612;2023-05-24T18:04:53;98977.81;;;16.77;65.80
69796;BME280;57073;45.650;9.612;2023-05-24T18:09:54;98976.88;;;16.52;63.91
69796;BME280;57073;45.650;9.612;2023-05-24T18:14:54;98965.09;;;16.27;65.18
69796;BME280;57073;45.650;9.612;2023-05-24T18:19:55;98955.53;;;16.35;66.03
69796;BME280;57073;45.650;9.612;2023-05-24T18:24:55;98934.31;;;16.32;64.36
69796;BME280;57073;45.650;9.612;2023-05-24T18:29:56;98939.53;;;16.23;66.07
69796;BME280;57073;45.650;9.612;2023-05-24T18:34:57;98937.22;;;16.06;66.18
69796;BME280;57073;45.650;9.612;2023-05-24T18:39:57;98935.78;;;16.19;65.37
69796;BME280;57073;45.650;9.612;2023-05-24T18:44:58;98936.72;;;15.34;65.92
69796;BME280;57073;45.650;9.612;2023-05-24T18:49:58;98957.13;;;15.26;67.27
69796;BME280;57073;45.650;9.612;2023-05-24T18:55:00;98956.75;;;15.53;65.64
69796;BME280;57073;45.650;9.612;2023-05-24T19:00:04;98976.03;;;16.17;64.51
69796;BME280;57073;45.650;9.612;2023-05-24T19:05:06;99006.41;;;16.34;64.95
69796;BME280;57073;45.650;9.612;2023-05-24T19:10:07;99029.50;;;16.37;65.26
69796;BME280;57073;45.650;9.612;2023-05-24T19:15:09;99056.53;;;16.68;64.58
69796;BME280;57073;45.650;9.612;2023-05-24T19:20:10;99088.78;;;16.95;63.69
69796;BME280;57073;45.650;9.612;2023-05-24T19:25:11;99101.00;;;16.98;64.84
69796;BME280;57073;45.650;9.612;2023-05-24T19:30:12;99110.00;;;16.98;64.16
69796;BME280;57073;45.650;9.612;2023-05-24T19:35:13;99115.41;;;17.03;63.06
69796;BME280;57073;45.650;9.612;2023-05-24T19:40:14;99108.34;;;16.97;63.29
69796;BME280;57073;45.650;9.612;2023-05-24T19:45:14;99104.91;;;16.81;64.91
69796;BME280;57073;45.650;9.612;2023-05-24T19:50:16;99111.22;;;16.77;67.31
69796;BME280;57073;45.650;9.612;2023-05-24T19:55:17;99119.94;;;16.79;65.57
69796;BME280;57073;45.650;9.612;2023-05-24T20:00:17;99122.59;;;16.89;65.22
69796;BME280;57073;45.650;9.612;2023-05-24T20:05:18;99130.78;;;16.84;67.21
69796;BME280;57073;45.650;9.612;2023-05-24T20:10:18;99135.91;;;16.90;65.23
69796;BME280;57073;45.650;9.612;2023-05-24T20:15:25;99143.00;;;16.91;64.00
69796;BME280;57073;45.650;9.612;2023-05-24T20:20:25;99152.84;;;16.82;62.71
69796;BME280;57073;45.650;9.612;2023-05-24T20:25:26;99152.84;;;16.82;62.94
69796;BME280;57073;45.650;9.612;2023-05-24T20:30:26;99144.72;;;16.72;63.45
69796;BME280;57073;45.650;9.612;2023-05-24T20:35:27;99158.06;;;16.73;63.91
69796;BME280;57073;45.650;9.612;2023-05-24T20:40:27;99158.34;;;16.67;66.45
69796;BME280;57073;45.650;9.612;2023-05-24T20:45:28;99163.00;;;16.61;67.64
69796;BME280;57073;45.650;9.612;2023-05-24T20:50:28;99170.00;;;16.83;65.09
69796;BME280;57073;45.650;9.612;2023-05-24T20:55:28;99173.88;;;16.61;65.93
69796;BME280;57073;45.650;9.612;2023-05-24T21:00:30;99164.75;;;16.42;66.69
69796;BME280;57073;45.650;9.612;2023-05-24T21:05:30;99159.56;;;16.45;66.57
69796;BME280;57073;45.650;9.612;2023-05-24T21:10:31;99164.16;;;16.50;68.76
69796;BME280;57073;45.650;9.612;2023-05-24T21:15:33;99143.31;;;16.20;67.29
69796;BME280;57073;45.650;9.612;2023-05-24T21:20:33;99138.44;;;16.17;68.80
69796;BME280;57073;45.650;9.612;2023-05-24T21:25:34;99129.03;;;15.73;70.57
69796;BME280;57073;45.650;9.612;2023-05-24T21:30:34;99114.06;;;15.75;69.86
69796;BME280;57073;45.650;9.612;2023-05-24T21:35:35;99130.97;;;15.26;68.82
69796;BME280;57073;45.650;9.612;2023-05-24T21:40:36;99123.09;;;15.04;68.58
69796;BME280;57073;45.650;9.612;2023-05-24T21:45:40;99149.16;;;14.95;68.12
69796;BME280;57073;45.650;9.612;2023-05-24T21:50:40;99135.50;;;14.85;69.10
69796;BME280;57073;45.650;9.612;2023-05-24T21:55:41;99142.09;;;14.99;67.00
69796;BME280;57073;45.650;9.612;2023-05-24T22:00:41;99143.72;;;15.10;66.38
69796;BME280;57073;45.650;9.612;2023-05-24T22:05:41;99125.53;;;15.36;65.54
69796;BME280;57073;45.650;9.612;2023-05-24T22:10:42;99130.13;;;15.41;65.42
69796;BME280;57073;45.650;9.612;2023-05-24T22:15:42;99132.31;;;15.39;65.49
69796;BME280;57073;45.650;9.612;2023-05-24T22:20:43;99140.16;;;15.66;66.00
69796;BME280;57073;45.650;9.612;2023-05-24T22:25:47;99144.22;;;15.74;65.24
69796;BME280;57073;45.650;9.612;2023-05-24T22:30:47;99125.53;;;15.36;65.35
69796;BME280;57073;45.650;9.612;2023-05-24T22:35:47;99138.56;;;15.14;65.95
69796;BME280;57073;45.650;9.612;2023-05-24T22:40:48;99148.88;;;15.07;63.93
69796;BME280;57073;45.650;9.612;2023-05-24T22:45:48;99150.78;;;15.47;64.36
69796;BME280;57073;45.650;9.612;2023-05-24T22:50:48;99146.47;;;15.26;63.11
69796;BME280;57073;45.650;9.612;2023-05-24T22:55:49;99137.75;;;15.29;62.48
69796;BME280;57073;45.650;9.612;2023-05-24T23:00:50;99148.59;;;15.24;63.17
69796;BME280;57073;45.650;9.612;2023-05-24T23:05:50;99154.28;;;14.86;63.72
69796;BME280;57073;45.650;9.612;2023-05-24T23:10:52;99145.56;;;14.79;63.22
69796;BME280;57073;45.650;9.612;2023-05-24T23:15:53;99129.84;;;15.01;62.63
69796;BME280;57073;45.650;9.612;2023-05-24T23:20:57;99125.25;;;14.97;61.79
69796;BME280;57073;45.650;9.612;2023-05-24T23:25:59;99136.31;;;14.75;62.03
69796;BME280;57073;45.650;9.612;2023-05-24T23:30:59;99130.41;;;14.93;61.98
69796;BME280;57073;45.650;9.612;2023-05-24T23:36:00;99133.84;;;14.63;62.09
69796;BME280;57073;45.650;9.612;2023-05-24T23:41:00;99133.06;;;14.83;61.76
69796;BME280;57073;45.650;9.612;2023-05-24T23:46:01;99134.75;;;15.25;61.62
69796;BME280;57073;45.650;9.612;2023-05-24T23:51:01;99126.88;;;15.03;61.62
69796;BME280;57073;45.650;9.612;2023-05-24T23:56:03;99129.59;;;15.24;61.22
